createdAt,value
2017-04-18T00:00:05.998Z,7.00
2017-04-18T00:00:37.271Z,7.00
2017-04-18T00:00:58.975Z,7.07
2017-04-18T00:01:20.693Z,7.09
2017-04-18T00:01:47.176Z,7.17
2017-04-18T00:02:08.873Z,7.12
2017-04-18T00:02:35.759Z,7.11
2017-04-18T00:02:57.478Z,7.11
2017-04-18T00:03:23.950Z,7.17
2017-04-18T00:03:45.647Z,7.24
2017-04-18T00:04:12.129Z,7.23
2017-04-18T00:04:33.838Z,7.16
2017-04-18T00:05:00.305Z,7.09
2017-04-18T00:05:22.000Z,7.03
2017-04-18T00:05:43.694Z,7.03
2017-04-18T00:06:10.164Z,7.10
2017-04-18T00:06:31.863Z,7.13
2017-04-18T00:06:58.341Z,7.15
2017-04-18T00:07:20.046Z,7.10
2017-04-18T00:07:41.735Z,7.12
2017-04-18T00:08:08.219Z,7.17
2017-04-18T00:08:29.933Z,7.14
2017-04-18T00:09:05.964Z,7.11
2017-04-18T00:09:28.227Z,7.16
2017-04-18T00:09:49.969Z,7.11
2017-04-18T00:10:25.999Z,6.98
2017-04-18T00:10:48.298Z,6.91
2017-04-18T00:11:09.992Z,6.95
2017-04-18T00:11:31.690Z,6.95
2017-04-18T00:11:58.175Z,7.06
2017-04-18T00:12:19.893Z,7.09
2017-04-18T00:12:55.929Z,7.10
2017-04-18T00:13:18.360Z,7.08
2017-04-18T00:13:40.058Z,6.99
2017-04-18T00:14:33.006Z,6.89
2017-04-18T00:14:59.661Z,6.86
2017-04-18T00:15:21.358Z,6.86
2017-04-18T00:15:52.642Z,6.84
2017-04-18T00:16:14.347Z,6.92
2017-04-18T00:16:36.056Z,6.99
2017-04-18T00:16:57.773Z,7.07
2017-04-18T00:17:19.463Z,7.12
2017-04-18T00:17:45.955Z,7.11
2017-04-18T00:18:07.649Z,7.12
2017-04-18T00:18:29.380Z,7.12
2017-04-18T00:18:55.866Z,7.05
2017-04-18T00:19:17.565Z,7.10
2017-04-18T00:19:39.284Z,7.10
2017-04-18T00:20:05.761Z,7.16
2017-04-18T00:20:27.466Z,7.20
2017-04-18T00:20:53.942Z,7.26
2017-04-18T00:21:15.651Z,7.27
2017-04-18T00:21:42.133Z,7.25
2017-04-18T00:22:03.847Z,7.15
2017-04-18T00:22:25.555Z,7.13
2017-04-18T00:22:47.258Z,7.14
2017-04-18T00:23:08.973Z,7.05
2017-04-18T00:23:30.720Z,7.04
2017-04-18T00:23:52.445Z,6.99
2017-04-18T00:24:18.931Z,6.96
2017-04-18T00:24:40.630Z,6.96
2017-04-18T00:25:02.336Z,6.93
2017-04-18T00:25:28.817Z,6.76
2017-04-18T00:25:50.527Z,6.76
2017-04-18T00:26:17.223Z,6.85
2017-04-18T00:26:38.952Z,6.86
2017-04-18T00:27:41.460Z,6.84
2017-04-18T00:28:03.157Z,6.86
2017-04-18T00:28:29.630Z,6.80
2017-04-18T00:28:51.324Z,6.76
2017-04-18T00:29:22.593Z,6.76
2017-04-18T00:29:44.314Z,6.78
2017-04-18T00:30:10.796Z,6.82
2017-04-18T00:30:32.620Z,6.85
2017-04-18T00:31:35.115Z,6.66
2017-04-18T00:31:56.814Z,6.73
2017-04-18T00:32:28.074Z,6.85
2017-04-18T00:32:49.782Z,6.83
2017-04-18T00:33:21.032Z,6.75
2017-04-18T00:33:42.753Z,6.77
2017-04-18T00:34:04.460Z,6.79
2017-04-18T00:34:30.943Z,6.79
2017-04-18T00:34:52.650Z,6.85
2017-04-18T00:35:14.465Z,6.85
2017-04-18T00:35:40.954Z,6.82
2017-04-18T00:36:02.665Z,6.84
2017-04-18T00:36:38.701Z,6.92
2017-04-18T00:37:01.426Z,6.91
2017-04-18T00:37:23.145Z,6.87
2017-04-18T00:37:59.183Z,6.92
2017-04-18T00:38:21.457Z,6.92
2017-04-18T00:38:43.211Z,6.90
2017-04-18T00:39:09.691Z,6.93
2017-04-18T00:39:31.431Z,6.94
2017-04-18T00:40:07.453Z,6.95
2017-04-18T00:40:29.718Z,6.91
2017-04-18T00:40:51.419Z,6.92
2017-04-18T00:41:13.241Z,6.87
2017-04-18T00:41:44.502Z,6.84
2017-04-18T00:42:06.185Z,6.71
2017-04-18T00:42:27.939Z,6.75
2017-04-18T00:43:04.001Z,6.82
2017-04-18T00:43:26.313Z,6.82
2017-04-18T00:43:52.844Z,6.89
2017-04-18T00:44:19.339Z,6.89
2017-04-18T00:44:41.041Z,6.87
2017-04-18T00:45:12.308Z,6.84
2017-04-18T00:45:34.018Z,6.84
2017-04-18T00:46:05.277Z,6.70
2017-04-18T00:46:26.986Z,6.67
2017-04-18T00:46:53.485Z,6.70
2017-04-18T00:47:15.189Z,6.74
2017-04-18T00:47:36.908Z,6.76
2017-04-18T00:48:03.388Z,6.77
2017-04-18T00:48:25.088Z,6.87
2017-04-18T00:48:51.589Z,6.93
2017-04-18T00:49:13.344Z,6.92
2017-04-18T00:49:35.052Z,6.98
2017-04-18T00:49:56.774Z,6.99
2017-04-18T00:50:18.490Z,6.90
2017-04-18T00:50:40.212Z,6.91
2017-04-18T00:51:01.902Z,6.81
2017-04-18T00:51:24.603Z,6.79
2017-04-18T00:51:51.089Z,6.68
2017-04-18T00:52:12.804Z,6.67
2017-04-18T00:52:39.290Z,6.52
2017-04-18T00:53:01.017Z,6.55
2017-04-18T00:53:37.040Z,6.54
2017-04-18T00:53:59.859Z,6.51
2017-04-18T00:54:21.640Z,6.40
2017-04-18T00:54:43.435Z,6.41
2017-04-18T00:55:05.415Z,6.52
2017-04-18T00:55:27.199Z,6.67
2017-04-18T00:55:49.038Z,6.71
2017-04-18T00:56:11.066Z,6.75
2017-04-18T00:56:32.979Z,6.75
2017-04-18T00:56:54.696Z,6.80
2017-04-18T00:57:45.990Z,6.71
2017-04-18T00:58:13.617Z,6.73
2017-04-18T00:59:01.902Z,6.80
2017-04-18T00:59:29.035Z,6.87
2017-04-18T00:59:50.864Z,6.94
2017-04-18T01:00:12.807Z,6.97
2017-04-18T01:00:34.574Z,6.85
2017-04-18T01:00:56.409Z,6.77
2017-04-18T01:01:58.816Z,6.78
2017-04-18T01:02:20.527Z,6.69
2017-04-18T01:02:42.323Z,6.73
2017-04-18T01:03:04.135Z,6.75
2017-04-18T01:03:25.999Z,6.77
2017-04-18T01:03:47.751Z,6.70
2017-04-18T01:04:09.543Z,6.75
2017-04-18T01:04:31.377Z,6.75
2017-04-18T01:04:53.150Z,6.77
2017-04-18T01:05:20.044Z,6.70
2017-04-18T01:05:44.160Z,6.63
2017-04-18T01:06:32.354Z,6.64
2017-04-18T01:06:54.093Z,6.70
2017-04-18T01:07:20.701Z,6.68
2017-04-18T01:07:42.662Z,6.65
2017-04-18T01:08:04.425Z,6.70
2017-04-18T01:08:26.277Z,6.64
2017-04-18T01:09:28.921Z,6.69
2017-04-18T01:09:55.503Z,6.66
2017-04-18T01:10:59.154Z,6.64
2017-04-18T01:11:20.961Z,6.66
2017-04-18T01:11:42.825Z,6.57
2017-04-18T01:12:04.599Z,6.60
2017-04-18T01:12:35.875Z,6.56
2017-04-18T01:12:57.994Z,6.57
2017-04-18T01:13:25.164Z,6.58
2017-04-18T01:13:49.541Z,6.67
2017-04-18T01:14:16.013Z,6.72
2017-04-18T01:14:43.158Z,6.74
2017-04-18T01:15:05.481Z,6.70
2017-04-18T01:15:27.209Z,6.68
2017-04-18T01:15:48.904Z,6.70
2017-04-18T01:16:10.658Z,6.71
2017-04-18T01:16:32.460Z,6.72
2017-04-18T01:16:54.275Z,6.71
2017-04-18T01:17:16.022Z,6.69
2017-04-18T01:17:47.440Z,6.68
2017-04-18T01:18:21.656Z,6.59
2017-04-18T01:18:46.017Z,6.54
2017-04-18T01:19:17.285Z,6.46
2017-04-18T01:19:53.352Z,6.43
2017-04-18T01:20:57.022Z,6.70
2017-04-18T01:21:50.096Z,6.70
2017-04-18T01:22:12.011Z,6.72
2017-04-18T01:22:41.592Z,6.81
2017-04-18T01:23:03.467Z,6.78
2017-04-18T01:23:30.050Z,6.87
2017-04-18T01:23:51.878Z,6.86
2017-04-18T01:24:57.975Z,6.82
2017-04-18T01:25:23.070Z,6.90
2017-04-18T01:25:47.654Z,6.88
2017-04-18T01:26:09.552Z,6.76
2017-04-18T01:26:31.422Z,6.46
2017-04-18T01:26:53.482Z,6.22
2017-04-18T01:27:22.985Z,6.10
2017-04-18T01:27:44.845Z,6.20
2017-04-18T01:28:09.739Z,6.06
2017-04-18T01:28:36.334Z,5.98
2017-04-18T01:28:58.123Z,6.03
2017-04-18T01:29:21.393Z,6.20
2017-04-18T01:29:43.240Z,6.34
2017-04-18T01:30:05.497Z,6.48
2017-04-18T01:30:27.304Z,6.49
2017-04-18T01:30:52.653Z,6.49
2017-04-18T01:31:22.204Z,6.35
2017-04-18T01:31:44.164Z,6.32
2017-04-18T01:32:20.858Z,6.39
2017-04-18T01:32:44.034Z,6.41
2017-04-18T01:34:27.373Z,6.68
2017-04-18T01:34:49.482Z,6.72
2017-04-18T01:35:19.166Z,6.80
2017-04-18T01:35:43.883Z,6.90
2017-04-18T01:36:05.601Z,6.88
2017-04-18T01:36:27.413Z,6.83
2017-04-18T01:36:49.232Z,6.81
2017-04-18T01:37:11.189Z,6.85
2017-04-18T01:37:33.074Z,6.85
2017-04-18T01:37:55.259Z,6.83
2017-04-18T01:38:17.375Z,6.77
2017-04-18T01:38:43.448Z,6.75
2017-04-18T01:39:09.038Z,6.71
2017-04-18T01:39:30.899Z,6.69
2017-04-18T01:40:00.798Z,6.79
2017-04-18T01:40:49.003Z,6.89
2017-04-18T01:41:10.909Z,6.84
2017-04-18T01:42:06.976Z,6.83
2017-04-18T01:42:28.817Z,6.90
2017-04-18T01:43:17.817Z,6.87
2017-04-18T01:43:39.784Z,6.86
2017-04-18T01:44:01.750Z,6.90
2017-04-18T01:44:53.461Z,7.00
2017-04-18T01:45:15.942Z,6.95
2017-04-18T01:45:40.910Z,6.86
2017-04-18T01:46:02.664Z,6.76
2017-04-18T01:46:54.165Z,6.65
2017-04-18T01:47:21.010Z,6.60
2017-04-18T01:47:45.492Z,6.62
2017-04-18T01:48:39.184Z,6.78
2017-04-18T01:49:03.493Z,6.84
2017-04-18T01:49:30.073Z,6.91
2017-04-18T01:50:23.104Z,6.80
2017-04-18T01:50:49.624Z,6.71
2017-04-18T01:51:11.529Z,6.69
2017-04-18T01:51:33.614Z,6.73
2017-04-18T01:52:28.462Z,6.70
2017-04-18T01:52:50.257Z,6.68
2017-04-18T01:53:12.016Z,6.67
2017-04-18T01:53:33.759Z,6.57
2017-04-18T01:54:30.903Z,6.16
2017-04-18T01:54:52.662Z,6.24
2017-04-18T01:55:14.483Z,6.29
2017-04-18T01:55:44.362Z,6.34
2017-04-18T01:56:11.133Z,6.37
2017-04-18T01:56:38.193Z,6.43
2017-04-18T01:56:59.949Z,6.42
2017-04-18T01:57:21.679Z,6.37
2017-04-18T01:57:43.738Z,6.32
2017-04-18T01:58:32.237Z,6.37
2017-04-18T01:58:58.801Z,6.49
2017-04-18T01:59:20.643Z,6.58
2017-04-18T01:59:52.006Z,6.59
2017-04-18T02:00:13.699Z,6.49
2017-04-18T02:00:35.405Z,6.48
2017-04-18T02:01:23.668Z,6.46
2017-04-18T02:01:45.427Z,6.43
2017-04-18T02:02:07.362Z,6.42
2017-04-18T02:02:29.106Z,6.34
2017-04-18T02:02:57.294Z,6.30
2017-04-18T02:03:19.184Z,6.27
2017-04-18T02:03:45.704Z,6.26
2017-04-18T02:04:07.610Z,6.35
2017-04-18T02:04:29.396Z,6.42
2017-04-18T02:04:51.266Z,6.50
2017-04-18T02:05:12.979Z,6.58
2017-04-18T02:05:44.326Z,6.50
2017-04-18T02:06:06.102Z,6.42
2017-04-18T02:06:27.887Z,6.41
2017-04-18T02:06:49.600Z,6.44
2017-04-18T02:07:11.319Z,6.47
2017-04-18T02:07:33.017Z,6.32
2017-04-18T02:07:59.613Z,6.18
2017-04-18T02:08:21.341Z,6.20
2017-04-18T02:08:43.034Z,6.18
2017-04-18T02:09:50.325Z,6.30
2017-04-18T02:10:12.033Z,6.35
2017-04-18T02:10:38.526Z,6.39
2017-04-18T02:11:00.327Z,6.38
2017-04-18T02:11:26.820Z,6.40
2017-04-18T02:11:48.528Z,6.43
2017-04-18T02:12:51.122Z,6.45
2017-04-18T02:13:22.382Z,6.43
2017-04-18T02:13:44.098Z,6.39
2017-04-18T02:14:05.896Z,6.39
2017-04-18T02:14:27.604Z,6.43
2017-04-18T02:14:49.305Z,6.43
2017-04-18T02:15:15.874Z,6.38
2017-04-18T02:15:37.591Z,6.43
2017-04-18T02:15:59.323Z,6.54
2017-04-18T02:16:30.675Z,6.54
2017-04-18T02:16:52.474Z,6.49
2017-04-18T02:17:18.972Z,6.55
2017-04-18T02:17:40.698Z,6.57
2017-04-18T02:18:16.724Z,6.62
2017-04-18T02:18:39.085Z,6.57
2017-04-18T02:19:05.752Z,6.57
2017-04-18T02:19:32.320Z,6.60
2017-04-18T02:19:54.039Z,6.61
2017-04-18T02:20:25.286Z,6.51
2017-04-18T02:20:47.079Z,6.45
2017-04-18T02:21:18.332Z,6.38
2017-04-18T02:21:40.032Z,6.42
2017-04-18T02:22:01.847Z,6.45
2017-04-18T02:22:28.322Z,6.55
2017-04-18T02:22:50.016Z,6.57
2017-04-18T02:23:16.574Z,6.51
2017-04-18T02:23:38.263Z,6.52
2017-04-18T02:23:59.974Z,6.59
2017-04-18T02:24:36.014Z,6.61
2017-04-18T02:24:58.393Z,6.59
2017-04-18T02:25:22.511Z,6.54
2017-04-18T02:25:58.535Z,6.55
2017-04-18T02:26:21.011Z,6.52
2017-04-18T02:26:42.729Z,6.46
2017-04-18T02:27:04.464Z,6.42
2017-04-18T02:27:31.030Z,6.40
2017-04-18T02:27:52.721Z,6.45
2017-04-18T02:28:14.430Z,6.45
2017-04-18T02:28:36.147Z,6.48
2017-04-18T02:28:57.947Z,6.48
2017-04-18T02:29:24.443Z,6.47
2017-04-18T02:29:46.136Z,6.55
2017-04-18T02:30:17.489Z,6.65
2017-04-18T02:30:39.180Z,6.60
2017-04-18T02:31:05.662Z,6.58
2017-04-18T02:31:27.380Z,6.51
2017-04-18T02:32:29.894Z,6.57
2017-04-18T02:32:51.606Z,6.57
2017-04-18T02:33:22.953Z,6.55
2017-04-18T02:33:44.665Z,6.54
2017-04-18T02:34:11.140Z,6.45
2017-04-18T02:34:32.878Z,6.46
2017-04-18T02:35:08.907Z,6.20
2017-04-18T02:35:31.390Z,6.21
2017-04-18T02:36:02.649Z,6.29
2017-04-18T02:36:24.427Z,6.30
2017-04-18T02:36:46.132Z,6.32
2017-04-18T02:37:12.615Z,6.38
2017-04-18T02:37:34.417Z,6.38
2017-04-18T02:38:10.444Z,6.41
2017-04-18T02:38:32.697Z,6.36
2017-04-18T02:38:59.270Z,6.39
2017-04-18T02:39:35.301Z,6.43
2017-04-18T02:39:57.555Z,6.39
2017-04-18T02:40:19.556Z,6.41
2017-04-18T02:40:50.804Z,6.52
2017-04-18T02:41:12.500Z,6.46
2017-04-18T02:41:34.300Z,6.43
2017-04-18T02:41:56.002Z,6.52
2017-04-18T02:42:17.728Z,6.44
2017-04-18T02:42:39.439Z,6.43
2017-04-18T02:43:06.008Z,6.40
2017-04-18T02:43:27.799Z,6.38
2017-04-18T02:43:49.610Z,6.39
2017-04-18T02:44:11.326Z,6.40
2017-04-18T02:44:33.044Z,6.42
2017-04-18T02:44:54.745Z,6.45
2017-04-18T02:45:16.521Z,6.53
2017-04-18T02:45:38.241Z,6.44
2017-04-18T02:45:59.921Z,6.29
2017-04-18T02:46:26.448Z,6.26
2017-04-18T02:46:48.153Z,6.25
2017-04-18T02:47:09.878Z,6.28
2017-04-18T02:47:31.628Z,6.32
2017-04-18T02:47:53.409Z,6.35
2017-04-18T02:48:15.141Z,6.30
2017-04-18T02:48:39.448Z,6.27
2017-04-18T02:49:01.161Z,6.31
2017-04-18T02:49:22.946Z,6.38
2017-04-18T02:49:54.394Z,6.46
2017-04-18T02:50:16.122Z,6.34
2017-04-18T02:50:42.688Z,6.04
2017-04-18T02:51:04.386Z,5.88
2017-04-18T02:51:30.863Z,5.92
2017-04-18T02:51:52.577Z,5.93
2017-04-18T02:52:14.373Z,5.95
2017-04-18T02:52:40.843Z,6.01
2017-04-18T02:53:02.532Z,6.13
2017-04-18T02:53:29.066Z,6.17
2017-04-18T02:53:50.769Z,6.24
2017-04-18T02:54:12.485Z,6.31
2017-04-18T02:54:38.981Z,6.31
2017-04-18T02:55:00.785Z,6.29
2017-04-18T02:55:22.488Z,6.24
2017-04-18T02:55:58.523Z,6.27
2017-04-18T02:56:21.022Z,6.25
2017-04-18T02:56:42.822Z,6.24
2017-04-18T02:57:09.299Z,6.17
2017-04-18T02:57:31.114Z,6.13
2017-04-18T02:57:52.868Z,6.06
2017-04-18T02:58:14.609Z,6.06
2017-04-18T02:58:36.321Z,6.13
2017-04-18T02:58:58.085Z,6.19
2017-04-18T02:59:24.567Z,6.27
2017-04-18T02:59:46.281Z,6.25
2017-04-18T03:00:12.870Z,6.21
2017-04-18T03:00:34.560Z,6.18
2017-04-18T03:00:56.277Z,6.22
2017-04-18T03:01:17.977Z,6.25
2017-04-18T03:01:39.765Z,6.30
2017-04-18T03:02:01.459Z,6.33
2017-04-18T03:02:27.948Z,6.35
2017-04-18T03:02:49.653Z,6.41
2017-04-18T03:03:11.472Z,6.46
2017-04-18T03:03:37.958Z,6.55
2017-04-18T03:03:59.686Z,6.56
2017-04-18T03:04:26.246Z,6.60
2017-04-18T03:04:47.957Z,6.54
2017-04-18T03:05:19.218Z,6.49
2017-04-18T03:05:41.037Z,6.49
2017-04-18T03:06:12.297Z,6.37
2017-04-18T03:06:34.008Z,6.44
2017-04-18T03:07:00.570Z,6.41
2017-04-18T03:07:22.274Z,6.40
2017-04-18T03:07:53.557Z,6.35
2017-04-18T03:08:15.348Z,6.35
2017-04-18T03:08:46.604Z,6.35
2017-04-18T03:09:08.314Z,6.34
2017-04-18T03:09:39.659Z,6.45
2017-04-18T03:10:01.405Z,6.44
2017-04-18T03:10:23.146Z,6.48
2017-04-18T03:10:44.852Z,6.44
2017-04-18T03:11:06.635Z,6.45
2017-04-18T03:11:28.332Z,6.47
2017-04-18T03:11:54.832Z,6.58
2017-04-18T03:12:16.642Z,6.61
2017-04-18T03:12:52.684Z,6.47
2017-04-18T03:13:14.977Z,6.39
2017-04-18T03:13:36.815Z,6.39
2017-04-18T03:14:03.288Z,6.45
2017-04-18T03:14:25.004Z,6.53
2017-04-18T03:14:46.700Z,6.48
2017-04-18T03:15:22.735Z,6.51
2017-04-18T03:15:45.270Z,6.48
2017-04-18T03:16:16.535Z,6.32
2017-04-18T03:16:38.531Z,6.35
2017-04-18T03:17:05.211Z,6.33
2017-04-18T03:17:27.009Z,6.32
2017-04-18T03:18:03.042Z,6.33
2017-04-18T03:18:25.660Z,6.35
2017-04-18T03:18:56.916Z,6.36
2017-04-18T03:19:18.714Z,6.35
2017-04-18T03:19:40.499Z,6.39
2017-04-18T03:20:02.306Z,6.43
2017-04-18T03:20:24.030Z,6.36
2017-04-18T03:21:31.401Z,6.39
2017-04-18T03:21:53.199Z,6.38
2017-04-18T03:22:24.458Z,6.34
2017-04-18T03:22:46.158Z,6.40
2017-04-18T03:23:07.973Z,6.47
2017-04-18T03:23:34.549Z,6.52
2017-04-18T03:23:56.346Z,6.53
2017-04-18T03:24:22.883Z,6.46
2017-04-18T03:24:44.681Z,6.47
2017-04-18T03:25:06.476Z,6.48
2017-04-18T03:25:28.270Z,6.43
2017-04-18T03:25:49.987Z,6.33
2017-04-18T03:26:11.807Z,6.30
2017-04-18T03:26:33.586Z,6.28
2017-04-18T03:26:55.796Z,6.28
2017-04-18T03:27:22.370Z,6.37
2017-04-18T03:27:44.172Z,6.35
2017-04-18T03:28:06.157Z,6.37
2017-04-18T03:28:32.757Z,6.39
2017-04-18T03:28:54.554Z,6.41
2017-04-18T03:29:16.339Z,6.44
2017-04-18T03:29:47.603Z,6.41
2017-04-18T03:30:09.385Z,6.38
2017-04-18T03:30:31.190Z,6.30
2017-04-18T03:30:53.009Z,6.30
2017-04-18T03:31:14.821Z,6.34
2017-04-18T03:31:36.601Z,6.34
2017-04-18T03:31:58.396Z,6.35
2017-04-18T03:32:20.210Z,6.33
2017-04-18T03:32:42.006Z,6.31
2017-04-18T03:33:08.572Z,6.18
2017-04-18T03:33:30.362Z,6.19
2017-04-18T03:33:52.148Z,6.24
2017-04-18T03:34:18.769Z,6.24
2017-04-18T03:34:40.595Z,6.23
2017-04-18T03:35:16.616Z,6.20
2017-04-18T03:35:40.096Z,6.29
2017-04-18T03:36:01.922Z,6.35
2017-04-18T03:36:28.496Z,6.35
2017-04-18T03:36:50.284Z,6.35
2017-04-18T03:37:12.096Z,6.36
2017-04-18T03:37:38.680Z,6.36
2017-04-18T03:38:00.481Z,6.30
2017-04-18T03:38:22.264Z,6.12
2017-04-18T03:38:48.843Z,6.13
2017-04-18T03:39:10.629Z,6.14
2017-04-18T03:39:32.423Z,6.17
2017-04-18T03:39:59.024Z,6.24
2017-04-18T03:40:20.804Z,6.29
2017-04-18T03:40:42.588Z,6.29
2017-04-18T03:41:13.961Z,6.33
2017-04-18T03:41:35.757Z,6.37
2017-04-18T03:41:57.544Z,6.38
2017-04-18T03:42:24.120Z,6.46
2017-04-18T03:42:45.906Z,6.54
2017-04-18T03:43:07.729Z,6.57
2017-04-18T03:43:43.761Z,6.55
2017-04-18T03:44:06.150Z,6.55
2017-04-18T03:44:27.943Z,6.55
2017-04-18T03:45:30.547Z,6.60
2017-04-18T03:45:52.348Z,6.54
2017-04-18T03:46:14.157Z,6.40
2017-04-18T03:46:40.723Z,6.30
2017-04-18T03:47:02.504Z,6.24
2017-04-18T03:48:05.118Z,6.26
2017-04-18T03:48:26.911Z,6.23
2017-04-18T03:49:02.943Z,6.19
2017-04-18T03:49:25.312Z,6.02
2017-04-18T03:49:47.110Z,6.05
2017-04-18T03:50:23.158Z,6.00
2017-04-18T03:50:45.514Z,5.95
2017-04-18T03:51:07.310Z,6.02
2017-04-18T03:51:38.574Z,6.09
2017-04-18T03:52:00.359Z,6.10
2017-04-18T03:52:26.922Z,6.03
2017-04-18T03:52:48.711Z,6.00
2017-04-18T03:53:10.502Z,6.07
2017-04-18T03:53:32.306Z,6.13
2017-04-18T03:53:54.134Z,6.15
2017-04-18T03:54:56.748Z,6.22
2017-04-18T03:55:18.532Z,6.24
2017-04-18T03:55:45.098Z,6.20
2017-04-18T03:56:06.880Z,6.19
2017-04-18T03:56:38.235Z,6.07
2017-04-18T03:57:00.023Z,6.00
2017-04-18T03:57:21.816Z,6.03
2017-04-18T03:57:53.180Z,6.14
2017-04-18T03:58:14.980Z,6.19
2017-04-18T03:58:36.771Z,6.15
2017-04-18T03:58:58.580Z,6.12
2017-04-18T03:59:20.362Z,6.18
2017-04-18T03:59:42.183Z,6.22
2017-04-18T04:00:03.983Z,6.29
2017-04-18T04:00:25.793Z,6.31
2017-04-18T04:00:47.585Z,6.31
2017-04-18T04:01:09.395Z,6.28
2017-04-18T04:01:31.171Z,6.25
2017-04-18T04:01:52.993Z,6.29
2017-04-18T04:02:19.575Z,6.28
2017-04-18T04:02:41.281Z,6.11
2017-04-18T04:03:03.003Z,6.03
2017-04-18T04:03:29.567Z,6.02
2017-04-18T04:03:51.263Z,5.99
2017-04-18T04:04:17.847Z,5.99
2017-04-18T04:04:39.666Z,5.95
2017-04-18T04:05:01.470Z,5.86
2017-04-18T04:05:32.722Z,5.80
2017-04-18T04:05:54.438Z,5.72
2017-04-18T04:06:25.690Z,5.74
2017-04-18T04:06:47.460Z,5.63
2017-04-18T04:07:09.251Z,5.61
2017-04-18T04:07:31.049Z,5.57
2017-04-18T04:07:52.901Z,5.55
2017-04-18T04:08:14.703Z,5.61
2017-04-18T04:08:41.320Z,5.72
2017-04-18T04:09:03.161Z,5.78
2017-04-18T04:09:24.944Z,5.85
2017-04-18T04:09:51.523Z,5.97
2017-04-18T04:10:13.309Z,6.09
2017-04-18T04:10:44.572Z,6.16
2017-04-18T04:11:06.423Z,6.11
2017-04-18T04:11:33.002Z,5.99
2017-04-18T04:11:54.809Z,5.99
2017-04-18T04:12:16.603Z,6.03
2017-04-18T04:12:43.185Z,6.05
2017-04-18T04:13:04.883Z,6.09
2017-04-18T04:13:31.384Z,5.97
2017-04-18T04:13:53.160Z,5.89
2017-04-18T04:14:19.727Z,5.86
2017-04-18T04:14:41.524Z,5.93
2017-04-18T04:15:08.085Z,5.92
2017-04-18T04:15:29.882Z,6.00
2017-04-18T04:16:01.267Z,6.06
2017-04-18T04:16:22.998Z,6.06
2017-04-18T04:16:44.690Z,6.08
2017-04-18T04:17:11.248Z,6.09
2017-04-18T04:17:33.079Z,6.05
2017-04-18T04:17:54.806Z,6.04
2017-04-18T04:18:21.306Z,6.05
2017-04-18T04:18:43.125Z,6.00
2017-04-18T04:19:45.659Z,6.01
2017-04-18T04:20:07.471Z,6.01
2017-04-18T04:20:38.726Z,5.87
2017-04-18T04:21:00.430Z,5.73
2017-04-18T04:21:22.241Z,5.77
2017-04-18T04:21:58.271Z,5.95
2017-04-18T04:22:20.545Z,5.96
2017-04-18T04:23:27.914Z,5.88
2017-04-18T04:23:49.630Z,5.91
2017-04-18T04:24:11.329Z,6.02
2017-04-18T04:24:42.673Z,5.91
2017-04-18T04:25:04.379Z,5.90
2017-04-18T04:25:26.090Z,5.89
2017-04-18T04:25:52.566Z,5.95
2017-04-18T04:26:14.569Z,5.91
2017-04-18T04:26:41.051Z,5.86
2017-04-18T04:27:02.773Z,5.77
2017-04-18T04:27:29.364Z,5.83
2017-04-18T04:27:51.064Z,5.85
2017-04-18T04:28:53.673Z,5.81
2017-04-18T04:29:29.615Z,5.74
2017-04-18T04:31:40.236Z,5.88
2017-04-18T04:32:02.292Z,5.85
2017-04-18T04:32:24.307Z,5.73
2017-04-18T04:32:46.139Z,5.79
2017-04-18T04:33:08.218Z,5.77
2017-04-18T04:33:29.968Z,5.82
2017-04-18T04:33:52.001Z,5.90
2017-04-18T04:34:17.218Z,5.83
2017-04-18T04:34:39.040Z,5.79
2017-04-18T04:35:01.532Z,5.76
2017-04-18T04:35:23.327Z,5.70
2017-04-18T04:35:49.621Z,5.68
2017-04-18T04:36:11.511Z,5.79
2017-04-18T04:36:33.251Z,5.81
2017-04-18T04:36:58.769Z,5.85
2017-04-18T04:37:20.553Z,5.79
2017-04-18T04:37:42.315Z,5.74
2017-04-18T04:38:07.537Z,5.64
2017-04-18T04:38:29.371Z,5.70
2017-04-18T04:38:51.388Z,5.63
2017-04-18T04:39:13.341Z,5.71
2017-04-18T04:39:35.254Z,5.75
2017-04-18T04:39:57.086Z,5.83
2017-04-18T04:40:18.804Z,5.85
2017-04-18T04:41:09.482Z,5.87
2017-04-18T04:41:59.674Z,5.91
2017-04-18T04:42:21.610Z,5.82
2017-04-18T04:43:20.024Z,5.89
2017-04-18T04:43:41.926Z,5.65
2017-04-18T04:44:04.066Z,5.59
2017-04-18T04:44:25.823Z,5.59
2017-04-18T04:44:47.613Z,5.46
2017-04-18T04:45:09.377Z,5.38
2017-04-18T04:45:31.143Z,5.27
2017-04-18T04:46:33.776Z,5.54
2017-04-18T04:46:55.980Z,5.57
2017-04-18T04:47:21.373Z,5.44
2017-04-18T04:47:44.258Z,5.53
2017-04-18T04:48:06.375Z,5.47
2017-04-18T04:50:26.375Z,4.95
2017-04-18T04:50:48.256Z,5.09
2017-04-18T04:51:10.118Z,5.06
2017-04-18T04:51:33.706Z,5.20
2017-04-18T04:51:55.501Z,5.18
2017-04-18T04:52:43.904Z,5.13
2017-04-18T04:53:05.627Z,5.10
2017-04-18T04:53:32.423Z,5.09
2017-04-18T04:53:54.263Z,5.03
2017-04-18T04:54:16.050Z,4.93
2017-04-18T04:54:37.975Z,5.06
2017-04-18T04:55:12.434Z,5.11
2017-04-18T04:55:49.507Z,5.19
2017-04-18T04:56:11.860Z,5.25
2017-04-18T04:56:38.407Z,5.05
2017-04-18T04:57:03.410Z,4.93
2017-04-18T04:57:25.383Z,4.98
2017-04-18T04:57:47.259Z,5.06
2017-04-18T04:58:15.064Z,4.95
2017-04-18T04:58:36.858Z,4.91
2017-04-18T04:58:59.201Z,4.88
2017-04-18T04:59:20.951Z,4.82
2017-04-18T04:59:43.047Z,4.76
2017-04-18T05:00:04.820Z,4.83
2017-04-18T05:00:26.772Z,4.88
2017-04-18T05:00:49.507Z,4.96
2017-04-18T05:01:15.764Z,5.11
2017-04-18T05:01:37.831Z,5.12
2017-04-18T05:01:59.925Z,5.09
2017-04-18T05:02:24.906Z,5.00
2017-04-18T05:02:52.128Z,4.84
2017-04-18T05:03:13.830Z,4.89
2017-04-18T05:03:35.638Z,4.94
2017-04-18T05:03:57.955Z,4.97
2017-04-18T05:04:22.850Z,4.98
2017-04-18T05:04:46.042Z,4.89
2017-04-18T05:05:48.641Z,4.94
2017-04-18T05:06:10.471Z,5.03
2017-04-18T05:06:32.372Z,4.96
2017-04-18T05:06:54.759Z,5.05
2017-04-18T05:07:16.480Z,5.02
2017-04-18T05:07:38.217Z,4.95
2017-04-18T05:08:08.706Z,5.00
2017-04-18T05:08:30.598Z,4.90
2017-04-18T05:08:53.084Z,4.95
2017-04-18T05:09:14.910Z,4.99
2017-04-18T05:09:43.298Z,5.04
2017-04-18T05:10:05.029Z,4.94
2017-04-18T05:10:26.806Z,4.75
2017-04-18T05:10:48.877Z,4.68
2017-04-18T05:11:10.922Z,4.62
2017-04-18T05:11:32.754Z,4.74
2017-04-18T05:11:54.753Z,4.66
2017-04-18T05:12:16.449Z,4.53
2017-04-18T05:12:40.915Z,4.43
2017-04-18T05:13:02.719Z,4.39
2017-04-18T05:13:24.581Z,4.42
2017-04-18T05:13:51.832Z,4.43
2017-04-18T05:14:13.552Z,4.45
2017-04-18T05:14:35.686Z,4.55
2017-04-18T05:14:57.607Z,4.55
2017-04-18T05:15:19.827Z,4.52
2017-04-18T05:15:43.922Z,4.49
2017-04-18T05:16:05.672Z,4.59
2017-04-18T05:16:32.663Z,4.69
2017-04-18T05:17:03.948Z,4.61
2017-04-18T05:17:25.994Z,4.66
2017-04-18T05:17:47.802Z,4.72
2017-04-18T05:18:13.950Z,4.82
2017-04-18T05:18:43.327Z,5.00
2017-04-18T05:19:35.104Z,4.94
2017-04-18T05:19:57.007Z,4.92
2017-04-18T05:20:19.169Z,4.95
2017-04-18T05:20:41.490Z,4.96
2017-04-18T05:21:05.147Z,4.88
2017-04-18T05:21:28.538Z,4.98
2017-04-18T05:21:53.845Z,4.89
2017-04-18T05:22:23.654Z,4.82
2017-04-18T05:22:45.400Z,4.72
2017-04-18T05:23:07.397Z,4.78
2017-04-18T05:23:29.171Z,4.89
2017-04-18T05:23:51.547Z,4.98
2017-04-18T05:24:14.595Z,5.12
2017-04-18T05:24:36.698Z,5.23
2017-04-18T05:25:03.870Z,5.25
2017-04-18T05:25:33.714Z,5.23
2017-04-18T05:25:55.981Z,5.33
2017-04-18T05:26:25.912Z,5.44
2017-04-18T05:26:49.585Z,5.49
2017-04-18T05:27:11.487Z,5.61
2017-04-18T05:27:38.092Z,5.47
2017-04-18T05:28:01.139Z,5.55
2017-04-18T05:28:27.701Z,5.51
2017-04-18T05:28:49.509Z,5.53
2017-04-18T05:29:11.586Z,5.62
2017-04-18T05:29:33.352Z,5.65
2017-04-18T05:29:55.546Z,5.50
2017-04-18T05:30:22.359Z,5.29
2017-04-18T05:30:44.212Z,5.34
2017-04-18T05:31:06.882Z,5.40
2017-04-18T05:31:29.005Z,5.46
2017-04-18T05:31:56.053Z,5.60
2017-04-18T05:32:22.405Z,5.67
2017-04-18T05:32:49.556Z,5.68
2017-04-18T05:33:11.304Z,5.66
2017-04-18T05:33:33.093Z,5.75
2017-04-18T05:34:03.143Z,5.67
2017-04-18T05:34:25.194Z,5.60
2017-04-18T05:34:50.733Z,5.49
2017-04-18T05:35:12.537Z,5.56
2017-04-18T05:35:34.236Z,5.47
2017-04-18T05:36:27.941Z,5.27
2017-04-18T05:36:50.447Z,5.31
2017-04-18T05:37:12.360Z,5.36
2017-04-18T05:37:34.143Z,5.45
2017-04-18T05:37:56.016Z,5.51
2017-04-18T05:38:17.825Z,5.53
2017-04-18T05:38:39.533Z,5.41
2017-04-18T05:39:01.777Z,5.32
2017-04-18T05:39:23.668Z,5.33
2017-04-18T05:39:45.504Z,5.47
2017-04-18T05:40:12.168Z,5.51
2017-04-18T05:40:33.980Z,5.56
2017-04-18T05:41:05.273Z,5.59
2017-04-18T05:41:27.163Z,5.62
2017-04-18T05:41:58.422Z,5.56
2017-04-18T05:42:20.181Z,5.56
2017-04-18T05:42:41.968Z,5.62
2017-04-18T05:43:13.268Z,5.71
2017-04-18T05:43:35.116Z,5.72
2017-04-18T05:43:56.916Z,5.66
2017-04-18T05:44:28.181Z,5.49
2017-04-18T05:44:49.894Z,5.36
2017-04-18T05:45:11.700Z,5.42
2017-04-18T05:45:42.948Z,5.50
2017-04-18T05:46:04.669Z,5.51
2017-04-18T05:46:31.175Z,5.55
2017-04-18T05:46:52.994Z,5.61
2017-04-18T05:47:29.016Z,5.73
2017-04-18T05:47:51.412Z,5.63